sensor_id;sensor_type;location;lat;lon;timestamp;pressure;altitude;pressure_sealevel;temperature;humidity
69127;BME280;56688;50.234;19.292;2023-04-07T00:00:24;98465.38;;;2.15;79.49
69127;BME280;56688;50.234;19.292;2023-04-07T00:02:52;98465.85;;;2.18;79.60
69127;BME280;56688;50.234;19.292;2023-04-07T00:05:19;98464.50;;;2.21;79.44
69127;BME280;56688;50.234;19.292;2023-04-07T00:07:46;98461.70;;;2.21;79.37
69127;BME280;56688;50.234;19.292;2023-04-07T00:10:23;98459.66;;;2.18;79.51
69127;BME280;56688;50.234;19.292;2023-04-07T00:12:51;98455.24;;;2.18;79.48
69127;BME280;56688;50.234;19.292;2023-04-07T00:15:18;98454.02;;;2.16;79.54
69127;BME280;56688;50.234;19.292;2023-04-07T00:17:44;98453.41;;;2.16;79.37
69127;BME280;56688;50.234;19.292;2023-04-07T00:20:11;98452.09;;;2.12;79.36
69127;BME280;56688;50.234;19.292;2023-04-07T00:22:38;98452.54;;;2.13;79.34
69127;BME280;56688;50.234;19.292;2023-04-07T00:25:05;98449.80;;;2.15;79.64
69127;BME280;56688;50.234;19.292;2023-04-07T00:27:32;98446.67;;;2.16;79.50
69127;BME280;56688;50.234;19.292;2023-04-07T00:29:59;98442.86;;;2.15;79.60
69127;BME280;56688;50.234;19.292;2023-04-07T00:32:26;98441.80;;;2.14;79.70
69127;BME280;56688;50.234;19.292;2023-04-07T00:34:53;98438.26;;;2.10;79.63
69127;BME280;56688;50.234;19.292;2023-04-07T00:37:20;98437.95;;;2.08;79.73
69127;BME280;56688;50.234;19.292;2023-04-07T00:39:47;98436.25;;;2.07;79.80
69127;BME280;56688;50.234;19.292;2023-04-07T00:42:13;98440.56;;;2.08;79.68
69127;BME280;56688;50.234;19.292;2023-04-07T00:44:40;98437.79;;;2.08;79.53
69127;BME280;56688;50.234;19.292;2023-04-07T00:47:07;98438.76;;;2.09;79.82
69127;BME280;56688;50.234;19.292;2023-04-07T00:49:36;98438.67;;;2.09;80.14
69127;BME280;56688;50.234;19.292;2023-04-07T00:52:04;98436.29;;;2.09;80.20
69127;BME280;56688;50.234;19.292;2023-04-07T00:54:32;98434.20;;;2.10;80.15
69127;BME280;56688;50.234;19.292;2023-04-07T00:56:58;98431.07;;;2.08;79.89
69127;BME280;56688;50.234;19.292;2023-04-07T00:59:27;98428.91;;;2.07;79.98
69127;BME280;56688;50.234;19.292;2023-04-07T01:04:53;98419.32;;;2.06;80.13
69127;BME280;56688;50.234;19.292;2023-04-07T01:07:24;98417.86;;;2.08;80.38
69127;BME280;56688;50.234;19.292;2023-04-07T01:10:04;98417.02;;;2.14;80.39
69127;BME280;56688;50.234;19.292;2023-04-07T01:12:51;98412.35;;;2.19;79.99
69127;BME280;56688;50.234;19.292;2023-04-07T01:15:23;98416.57;;;2.19;79.98
69127;BME280;56688;50.234;19.292;2023-04-07T01:18:00;98414.15;;;2.20;80.02
69127;BME280;56688;50.234;19.292;2023-04-07T01:20:33;98416.27;;;2.18;79.74
69127;BME280;56688;50.234;19.292;2023-04-07T01:23:04;98419.05;;;2.12;79.59
69127;BME280;56688;50.234;19.292;2023-04-07T01:31:02;98420.61;;;2.13;79.90
69127;BME280;56688;50.234;19.292;2023-04-07T01:33:31;98409.05;;;2.15;80.20
69127;BME280;56688;50.234;19.292;2023-04-07T01:36:02;98408.49;;;2.18;79.93
69127;BME280;56688;50.234;19.292;2023-04-07T01:38:32;98403.00;;;2.19;79.95
69127;BME280;56688;50.234;19.292;2023-04-07T01:41:00;98402.75;;;2.18;79.86
69127;BME280;56688;50.234;19.292;2023-04-07T01:43:29;98402.89;;;2.17;79.86
69127;BME280;56688;50.234;19.292;2023-04-07T01:45:56;98405.41;;;2.18;80.04
69127;BME280;56688;50.234;19.292;2023-04-07T01:48:25;98404.63;;;2.20;80.11
69127;BME280;56688;50.234;19.292;2023-04-07T01:50:53;98400.13;;;2.21;80.01
69127;BME280;56688;50.234;19.292;2023-04-07T01:53:21;98398.05;;;2.21;80.02
69127;BME280;56688;50.234;19.292;2023-04-07T01:55:48;98396.86;;;2.21;79.69
69127;BME280;56688;50.234;19.292;2023-04-07T01:58:15;98401.55;;;2.21;80.07
69127;BME280;56688;50.234;19.292;2023-04-07T02:00:42;98398.80;;;2.21;79.95
69127;BME280;56688;50.234;19.292;2023-04-07T02:03:17;98400.91;;;2.21;79.74
69127;BME280;56688;50.234;19.292;2023-04-07T02:05:49;98402.35;;;2.20;80.04
69127;BME280;56688;50.234;19.292;2023-04-07T02:08:21;98402.76;;;2.24;79.97
69127;BME280;56688;50.234;19.292;2023-04-07T02:10:50;98406.50;;;2.28;80.01
69127;BME280;56688;50.234;19.292;2023-04-07T02:13:19;98409.59;;;2.30;79.85
69127;BME280;56688;50.234;19.292;2023-04-07T02:15:48;98404.85;;;2.28;79.58
69127;BME280;56688;50.234;19.292;2023-04-07T02:18:18;98401.13;;;2.25;79.71
69127;BME280;56688;50.234;19.292;2023-04-07T02:20:47;98403.39;;;2.19;79.70
69127;BME280;56688;50.234;19.292;2023-04-07T02:23:14;98405.29;;;2.13;79.90
69127;BME280;56688;50.234;19.292;2023-04-07T02:25:42;98401.44;;;2.11;80.02
69127;BME280;56688;50.234;19.292;2023-04-07T02:28:08;98405.52;;;2.11;80.13
69127;BME280;56688;50.234;19.292;2023-04-07T02:30:36;98408.12;;;2.13;80.26
69127;BME280;56688;50.234;19.292;2023-04-07T02:33:03;98404.11;;;2.17;80.36
69127;BME280;56688;50.234;19.292;2023-04-07T02:35:30;98401.25;;;2.19;80.14
69127;BME280;56688;50.234;19.292;2023-04-07T02:37:56;98399.05;;;2.16;80.23
69127;BME280;56688;50.234;19.292;2023-04-07T02:40:23;98399.89;;;2.15;80.27
69127;BME280;56688;50.234;19.292;2023-04-07T02:42:52;98402.48;;;2.11;80.12
69127;BME280;56688;50.234;19.292;2023-04-07T02:45:21;98399.91;;;2.07;80.17
69127;BME280;56688;50.234;19.292;2023-04-07T02:47:48;98396.98;;;2.04;80.26
69127;BME280;56688;50.234;19.292;2023-04-07T02:50:16;98391.89;;;2.06;80.66
69127;BME280;56688;50.234;19.292;2023-04-07T02:52:43;98384.41;;;2.07;80.26
69127;BME280;56688;50.234;19.292;2023-04-07T02:55:12;98376.91;;;2.08;80.54
69127;BME280;56688;50.234;19.292;2023-04-07T02:57:39;98383.10;;;2.12;80.80
69127;BME280;56688;50.234;19.292;2023-04-07T03:00:11;98384.48;;;2.16;80.77
69127;BME280;56688;50.234;19.292;2023-04-07T03:02:53;98379.68;;;2.14;80.56
69127;BME280;56688;50.234;19.292;2023-04-07T03:05:20;98374.80;;;2.14;80.67
69127;BME280;56688;50.234;19.292;2023-04-07T03:07:47;98377.71;;;2.13;80.89
69127;BME280;56688;50.234;19.292;2023-04-07T03:10:14;98384.16;;;2.12;80.74
69127;BME280;56688;50.234;19.292;2023-04-07T03:12:42;98384.09;;;2.13;80.63
69127;BME280;56688;50.234;19.292;2023-04-07T03:15:09;98389.52;;;2.15;80.77
69127;BME280;56688;50.234;19.292;2023-04-07T03:17:38;98382.94;;;2.17;80.93
69127;BME280;56688;50.234;19.292;2023-04-07T03:20:06;98385.04;;;2.21;80.74
69127;BME280;56688;50.234;19.292;2023-04-07T03:22:33;98385.25;;;2.23;80.66
69127;BME280;56688;50.234;19.292;2023-04-07T03:25:00;98390.58;;;2.25;80.59
69127;BME280;56688;50.234;19.292;2023-04-07T03:27:27;98388.69;;;2.24;80.36
69127;BME280;56688;50.234;19.292;2023-04-07T03:29:54;98386.22;;;2.22;79.85
69127;BME280;56688;50.234;19.292;2023-04-07T03:32:22;98390.87;;;2.19;80.32
69127;BME280;56688;50.234;19.292;2023-04-07T03:34:49;98386.89;;;2.20;80.45
69127;BME280;56688;50.234;19.292;2023-04-07T03:37:16;98386.94;;;2.18;80.18
69127;BME280;56688;50.234;19.292;2023-04-07T03:39:43;98384.97;;;2.18;80.53
69127;BME280;56688;50.234;19.292;2023-04-07T03:42:21;98382.87;;;2.16;80.57
69127;BME280;56688;50.234;19.292;2023-04-07T03:44:49;98383.73;;;2.14;80.83
69127;BME280;56688;50.234;19.292;2023-04-07T03:47:17;98381.50;;;2.10;80.35
69127;BME280;56688;50.234;19.292;2023-04-07T03:49:48;98379.75;;;2.10;80.61
69127;BME280;56688;50.234;19.292;2023-04-07T03:52:15;98382.13;;;2.07;80.68
69127;BME280;56688;50.234;19.292;2023-04-07T03:54:43;98383.27;;;2.08;80.97
69127;BME280;56688;50.234;19.292;2023-04-07T03:57:11;98379.61;;;2.12;80.97
69127;BME280;56688;50.234;19.292;2023-04-07T03:59:42;98377.86;;;2.13;81.18
69127;BME280;56688;50.234;19.292;2023-04-07T04:02:09;98375.76;;;2.17;81.10
69127;BME280;56688;50.234;19.292;2023-04-07T04:04:36;98373.55;;;2.20;80.98
69127;BME280;56688;50.234;19.292;2023-04-07T04:07:04;98372.09;;;2.21;80.72
69127;BME280;56688;50.234;19.292;2023-04-07T04:09:36;98371.87;;;2.19;80.83
69127;BME280;56688;50.234;19.292;2023-04-07T04:12:04;98366.52;;;2.18;80.71
69127;BME280;56688;50.234;19.292;2023-04-07T04:14:31;98368.18;;;2.18;80.47
69127;BME280;56688;50.234;19.292;2023-04-07T04:16:59;98370.02;;;2.17;80.54
69127;BME280;56688;50.234;19.292;2023-04-07T04:19:35;98374.92;;;2.19;80.98
69127;BME280;56688;50.234;19.292;2023-04-07T04:22:09;98376.92;;;2.24;80.88
69127;BME280;56688;50.234;19.292;2023-04-07T04:24:41;98381.91;;;2.27;80.85
69127;BME280;56688;50.234;19.292;2023-04-07T04:27:08;98386.11;;;2.26;80.53
69127;BME280;56688;50.234;19.292;2023-04-07T04:29:35;98385.80;;;2.23;80.10
69127;BME280;56688;50.234;19.292;2023-04-07T04:32:03;98387.98;;;2.18;80.36
69127;BME280;56688;50.234;19.292;2023-04-07T04:34:30;98387.19;;;2.17;80.68
69127;BME280;56688;50.234;19.292;2023-04-07T04:36:58;98386.85;;;2.19;80.70
69127;BME280;56688;50.234;19.292;2023-04-07T04:39:25;98386.29;;;2.21;80.96
69127;BME280;56688;50.234;19.292;2023-04-07T04:41:52;98393.04;;;2.20;80.64
69127;BME280;56688;50.234;19.292;2023-04-07T04:44:21;98395.22;;;2.24;80.91
69127;BME280;56688;50.234;19.292;2023-04-07T04:46:48;98394.95;;;2.27;81.03
69127;BME280;56688;50.234;19.292;2023-04-07T04:49:16;98395.62;;;2.27;80.69
69127;BME280;56688;50.234;19.292;2023-04-07T04:51:45;98394.02;;;2.28;80.69
69127;BME280;56688;50.234;19.292;2023-04-07T04:54:15;98397.61;;;2.26;80.60
69127;BME280;56688;50.234;19.292;2023-04-07T04:56:43;98403.19;;;2.29;80.92
69127;BME280;56688;50.234;19.292;2023-04-07T04:59:10;98409.36;;;2.35;81.08
69127;BME280;56688;50.234;19.292;2023-04-07T05:01:41;98407.51;;;2.39;80.74
69127;BME280;56688;50.234;19.292;2023-04-07T05:04:11;98401.98;;;2.40;80.35
69127;BME280;56688;50.234;19.292;2023-04-07T05:06:43;98402.92;;;2.37;80.32
69127;BME280;56688;50.234;19.292;2023-04-07T05:09:11;98396.02;;;2.34;80.14
69127;BME280;56688;50.234;19.292;2023-04-07T05:11:42;98395.06;;;2.29;80.41
69127;BME280;56688;50.234;19.292;2023-04-07T05:14:09;98390.63;;;2.28;80.33
69127;BME280;56688;50.234;19.292;2023-04-07T05:16:38;98392.38;;;2.30;80.56
69127;BME280;56688;50.234;19.292;2023-04-07T05:19:05;98397.21;;;2.31;80.42
69127;BME280;56688;50.234;19.292;2023-04-07T05:21:32;98402.54;;;2.34;80.84
69127;BME280;56688;50.234;19.292;2023-04-07T05:24:01;98405.25;;;2.37;80.71
69127;BME280;56688;50.234;19.292;2023-04-07T05:26:29;98409.34;;;2.40;80.54
69127;BME280;56688;50.234;19.292;2023-04-07T05:28:56;98407.98;;;2.44;80.22
69127;BME280;56688;50.234;19.292;2023-04-07T05:31:23;98411.70;;;2.43;80.20
69127;BME280;56688;50.234;19.292;2023-04-07T05:33:52;98417.46;;;2.42;80.06
69127;BME280;56688;50.234;19.292;2023-04-07T05:36:20;98412.71;;;2.42;80.22
69127;BME280;56688;50.234;19.292;2023-04-07T05:38:50;98406.77;;;2.45;80.09
69127;BME280;56688;50.234;19.292;2023-04-07T05:41:17;98414.92;;;2.46;79.97
69127;BME280;56688;50.234;19.292;2023-04-07T05:43:44;98413.80;;;2.51;80.18
69127;BME280;56688;50.234;19.292;2023-04-07T05:46:12;98418.61;;;2.53;80.13
69127;BME280;56688;50.234;19.292;2023-04-07T05:48:46;98414.15;;;2.51;79.93
69127;BME280;56688;50.234;19.292;2023-04-07T05:51:14;98408.01;;;2.53;80.01
69127;BME280;56688;50.234;19.292;2023-04-07T05:53:41;98402.46;;;2.54;79.69
69127;BME280;56688;50.234;19.292;2023-04-07T05:56:09;98401.46;;;2.51;79.68
69127;BME280;56688;50.234;19.292;2023-04-07T05:58:45;98396.34;;;2.50;79.61
69127;BME280;56688;50.234;19.292;2023-04-07T06:01:12;98397.86;;;2.50;79.81
69127;BME280;56688;50.234;19.292;2023-04-07T06:03:39;98404.70;;;2.53;80.01
69127;BME280;56688;50.234;19.292;2023-04-07T06:06:14;98408.33;;;2.57;80.05
69127;BME280;56688;50.234;19.292;2023-04-07T06:08:41;98406.21;;;2.59;80.05
69127;BME280;56688;50.234;19.292;2023-04-07T06:11:08;98402.50;;;2.63;80.02
69127;BME280;56688;50.234;19.292;2023-04-07T06:13:34;98397.38;;;2.66;79.81
69127;BME280;56688;50.234;19.292;2023-04-07T06:16:01;98390.30;;;2.68;79.82
69127;BME280;56688;50.234;19.292;2023-04-07T06:18:29;98393.38;;;2.71;79.75
69127;BME280;56688;50.234;19.292;2023-04-07T06:20:56;98399.94;;;2.78;79.97
69127;BME280;56688;50.234;19.292;2023-04-07T06:23:24;98399.85;;;2.86;79.95
69127;BME280;56688;50.234;19.292;2023-04-07T06:25:51;98398.84;;;2.93;79.86
69127;BME280;56688;50.234;19.292;2023-04-07T06:28:18;98404.32;;;3.01;79.66
69127;BME280;56688;50.234;19.292;2023-04-07T06:30:47;98404.45;;;3.07;79.52
69127;BME280;56688;50.234;19.292;2023-04-07T06:33:14;98405.02;;;3.08;79.18
69127;BME280;56688;50.234;19.292;2023-04-07T06:35:41;98401.72;;;3.08;79.07
69127;BME280;56688;50.234;19.292;2023-04-07T06:38:08;98406.11;;;3.08;78.77
69127;BME280;56688;50.234;19.292;2023-04-07T06:40:37;98406.34;;;3.11;78.75
69127;BME280;56688;50.234;19.292;2023-04-07T06:43:04;98408.66;;;3.13;78.64
69127;BME280;56688;50.234;19.292;2023-04-07T06:45:42;98409.48;;;3.11;78.35
69127;BME280;56688;50.234;19.292;2023-04-07T06:48:09;98408.66;;;3.09;78.43
69127;BME280;56688;50.234;19.292;2023-04-07T06:50:36;98407.01;;;3.11;78.46
69127;BME280;56688;50.234;19.292;2023-04-07T06:53:04;98404.02;;;3.15;78.42
69127;BME280;56688;50.234;19.292;2023-04-07T06:55:31;98401.55;;;3.17;78.25
69127;BME280;56688;50.234;19.292;2023-04-07T06:57:58;98399.65;;;3.19;78.10
69127;BME280;56688;50.234;19.292;2023-04-07T07:00:25;98397.83;;;3.21;77.96
69127;BME280;56688;50.234;19.292;2023-04-07T07:02:54;98401.20;;;3.23;77.85
69127;BME280;56688;50.234;19.292;2023-04-07T07:05:21;98403.26;;;3.29;78.16
69127;BME280;56688;50.234;19.292;2023-04-07T07:07:49;98402.40;;;3.36;78.06
69127;BME280;56688;50.234;19.292;2023-04-07T07:10:17;98396.52;;;3.41;77.63
69127;BME280;56688;50.234;19.292;2023-04-07T07:12:46;98404.00;;;3.43;77.63
69127;BME280;56688;50.234;19.292;2023-04-07T07:15:12;98407.60;;;3.48;77.62
69127;BME280;56688;50.234;19.292;2023-04-07T07:17:39;98411.69;;;3.51;77.50
69127;BME280;56688;50.234;19.292;2023-04-07T07:20:07;98417.48;;;3.51;77.21
69127;BME280;56688;50.234;19.292;2023-04-07T07:22:34;98419.80;;;3.55;77.46
69127;BME280;56688;50.234;19.292;2023-04-07T07:25:01;98421.23;;;3.60;77.23
69127;BME280;56688;50.234;19.292;2023-04-07T07:27:28;98422.34;;;3.65;76.89
69127;BME280;56688;50.234;19.292;2023-04-07T07:29:55;98418.80;;;3.67;76.64
69127;BME280;56688;50.234;19.292;2023-04-07T07:32:22;98426.13;;;3.64;76.27
69127;BME280;56688;50.234;19.292;2023-04-07T07:34:49;98429.56;;;3.63;76.38
69127;BME280;56688;50.234;19.292;2023-04-07T07:37:16;98425.24;;;3.66;76.38
69127;BME280;56688;50.234;19.292;2023-04-07T07:39:43;98428.11;;;3.64;76.18
69127;BME280;56688;50.234;19.292;2023-04-07T07:42:10;98425.06;;;3.60;76.07
69127;BME280;56688;50.234;19.292;2023-04-07T07:44:37;98418.77;;;3.56;76.23
69127;BME280;56688;50.234;19.292;2023-04-07T07:47:04;98398.20;;;3.58;76.48
69127;BME280;56688;50.234;19.292;2023-04-07T07:49:31;98378.10;;;3.60;76.80
69127;BME280;56688;50.234;19.292;2023-04-07T07:51:58;98388.46;;;3.68;77.21
69127;BME280;56688;50.234;19.292;2023-04-07T07:54:25;98403.51;;;3.78;77.17
69127;BME280;56688;50.234;19.292;2023-04-07T07:56:52;98416.73;;;3.83;76.81
69127;BME280;56688;50.234;19.292;2023-04-07T07:59:18;98421.71;;;3.86;76.61
69127;BME280;56688;50.234;19.292;2023-04-07T08:01:45;98422.41;;;3.90;76.57
69127;BME280;56688;50.234;19.292;2023-04-07T08:04:12;98419.17;;;3.93;76.08
69127;BME280;56688;50.234;19.292;2023-04-07T08:06:39;98418.93;;;3.91;76.06
69127;BME280;56688;50.234;19.292;2023-04-07T08:09:07;98411.48;;;3.94;76.08
69127;BME280;56688;50.234;19.292;2023-04-07T08:11:34;98411.88;;;3.93;76.08
69127;BME280;56688;50.234;19.292;2023-04-07T08:14:01;98427.81;;;3.98;76.41
69127;BME280;56688;50.234;19.292;2023-04-07T08:16:27;98429.20;;;4.04;76.27
69127;BME280;56688;50.234;19.292;2023-04-07T08:18:54;98422.42;;;4.06;76.29
69127;BME280;56688;50.234;19.292;2023-04-07T08:21:21;98425.11;;;4.07;76.14
69127;BME280;56688;50.234;19.292;2023-04-07T08:23:48;98424.26;;;4.05;76.22
69127;BME280;56688;50.234;19.292;2023-04-07T08:26:15;98421.91;;;4.08;76.04
69127;BME280;56688;50.234;19.292;2023-04-07T08:28:42;98423.10;;;4.10;76.10
69127;BME280;56688;50.234;19.292;2023-04-07T08:31:09;98420.84;;;4.10;75.63
69127;BME280;56688;50.234;19.292;2023-04-07T08:33:36;98426.46;;;4.01;75.45
69127;BME280;56688;50.234;19.292;2023-04-07T08:36:03;98427.86;;;3.97;75.82
69127;BME280;56688;50.234;19.292;2023-04-07T08:38:30;98425.48;;;3.95;75.67
69127;BME280;56688;50.234;19.292;2023-04-07T08:41:02;98422.62;;;3.88;75.70
69127;BME280;56688;50.234;19.292;2023-04-07T08:43:30;98421.92;;;3.80;75.96
69127;BME280;56688;50.234;19.292;2023-04-07T08:45:59;98426.11;;;3.79;76.12
69127;BME280;56688;50.234;19.292;2023-04-07T08:48:29;98418.67;;;3.78;76.46
69127;BME280;56688;50.234;19.292;2023-04-07T08:51:04;98418.73;;;3.81;76.58
69127;BME280;56688;50.234;19.292;2023-04-07T08:53:40;98421.52;;;3.84;76.88
69127;BME280;56688;50.234;19.292;2023-04-07T08:56:12;98418.07;;;3.89;77.01
69127;BME280;56688;50.234;19.292;2023-04-07T08:58:39;98408.34;;;3.97;77.00
69127;BME280;56688;50.234;19.292;2023-04-07T09:01:07;98399.21;;;3.97;76.88
69127;BME280;56688;50.234;19.292;2023-04-07T09:03:35;98405.89;;;4.02;77.08
69127;BME280;56688;50.234;19.292;2023-04-07T09:06:03;98412.29;;;4.10;77.01
69127;BME280;56688;50.234;19.292;2023-04-07T09:08:30;98409.89;;;4.21;76.89
69127;BME280;56688;50.234;19.292;2023-04-07T09:10:57;98414.50;;;4.28;76.50
69127;BME280;56688;50.234;19.292;2023-04-07T09:13:24;98412.05;;;4.29;76.21
69127;BME280;56688;50.234;19.292;2023-04-07T09:15:53;98402.45;;;4.28;76.00
69127;BME280;56688;50.234;19.292;2023-04-07T09:18:21;98399.16;;;4.26;76.08
69127;BME280;56688;50.234;19.292;2023-04-07T09:23:32;98397.73;;;4.24;75.82
69127;BME280;56688;50.234;19.292;2023-04-07T09:26:17;98395.80;;;4.24;76.25
69127;BME280;56688;50.234;19.292;2023-04-07T09:28:47;98400.19;;;4.23;76.05
69127;BME280;56688;50.234;19.292;2023-04-07T09:31:14;98400.23;;;4.24;76.18
69127;BME280;56688;50.234;19.292;2023-04-07T09:33:41;98399.64;;;4.32;76.47
69127;BME280;56688;50.234;19.292;2023-04-07T09:36:08;98399.99;;;4.37;76.34
69127;BME280;56688;50.234;19.292;2023-04-07T09:38:38;98398.30;;;4.36;76.07
69127;BME280;56688;50.234;19.292;2023-04-07T09:41:07;98400.66;;;4.37;76.40
69127;BME280;56688;50.234;19.292;2023-04-07T09:43:36;98400.61;;;4.43;76.52
69127;BME280;56688;50.234;19.292;2023-04-07T09:46:07;98404.40;;;4.51;76.37
69127;BME280;56688;50.234;19.292;2023-04-07T09:48:34;98410.69;;;4.62;76.40
69127;BME280;56688;50.234;19.292;2023-04-07T09:51:16;98401.43;;;4.70;76.10
69127;BME280;56688;50.234;19.292;2023-04-07T09:53:45;98398.08;;;4.76;75.85
69127;BME280;56688;50.234;19.292;2023-04-07T09:56:16;98401.07;;;4.81;75.73
69127;BME280;56688;50.234;19.292;2023-04-07T09:58:45;98405.12;;;4.85;75.82
69127;BME280;56688;50.234;19.292;2023-04-07T10:01:14;98405.88;;;4.86;75.40
69127;BME280;56688;50.234;19.292;2023-04-07T10:03:45;98399.90;;;4.82;75.07
69127;BME280;56688;50.234;19.292;2023-04-07T10:06:13;98406.42;;;4.75;75.11
69127;BME280;56688;50.234;19.292;2023-04-07T10:08:41;98410.65;;;4.73;75.33
69127;BME280;56688;50.234;19.292;2023-04-07T10:11:09;98414.94;;;4.68;74.99
69127;BME280;56688;50.234;19.292;2023-04-07T10:13:39;98418.42;;;4.61;74.97
69127;BME280;56688;50.234;19.292;2023-04-07T10:16:07;98417.95;;;4.57;75.57
69127;BME280;56688;50.234;19.292;2023-04-07T10:18:35;98417.25;;;4.57;75.80
69127;BME280;56688;50.234;19.292;2023-04-07T10:21:04;98418.95;;;4.52;75.50
69127;BME280;56688;50.234;19.292;2023-04-07T10:23:46;98419.20;;;4.48;75.71
69127;BME280;56688;50.234;19.292;2023-04-07T10:26:17;98413.41;;;4.51;76.32
69127;BME280;56688;50.234;19.292;2023-04-07T10:28:47;98411.30;;;4.57;76.39
69127;BME280;56688;50.234;19.292;2023-04-07T10:31:16;98411.91;;;4.59;76.27
69127;BME280;56688;50.234;19.292;2023-04-07T10:33:52;98412.55;;;4.63;76.40
69127;BME280;56688;50.234;19.292;2023-04-07T10:36:20;98403.97;;;4.66;76.49
69127;BME280;56688;50.234;19.292;2023-04-07T10:44:03;98405.19;;;4.58;76.16
69127;BME280;56688;50.234;19.292;2023-04-07T10:49:15;98401.98;;;4.60;76.75
69127;BME280;56688;50.234;19.292;2023-04-07T10:54:40;98396.36;;;4.66;76.59
69127;BME280;56688;50.234;19.292;2023-04-07T10:57:10;98393.02;;;4.66;76.45
69127;BME280;56688;50.234;19.292;2023-04-07T10:59:40;98392.48;;;4.71;76.98
69127;BME280;56688;50.234;19.292;2023-04-07T11:04:50;98383.39;;;4.88;77.19
69127;BME280;56688;50.234;19.292;2023-04-07T11:07:17;98381.18;;;4.94;76.76
69127;BME280;56688;50.234;19.292;2023-04-07T11:09:45;98380.05;;;5.07;76.97
69127;BME280;56688;50.234;19.292;2023-04-07T11:12:27;98384.63;;;5.20;76.70
69127;BME280;56688;50.234;19.292;2023-04-07T11:14:56;98385.48;;;5.26;76.21
69127;BME280;56688;50.234;19.292;2023-04-07T11:17:25;98385.77;;;5.25;75.48
69127;BME280;56688;50.234;19.292;2023-04-07T11:19:53;98385.81;;;5.26;75.87
69127;BME280;56688;50.234;19.292;2023-04-07T11:22:20;98384.56;;;5.28;75.75
69127;BME280;56688;50.234;19.292;2023-04-07T11:24:56;98383.50;;;5.28;75.00
69127;BME280;56688;50.234;19.292;2023-04-07T11:27:23;98384.15;;;5.27;74.80
69127;BME280;56688;50.234;19.292;2023-04-07T11:29:50;98384.73;;;5.20;75.08
69127;BME280;56688;50.234;19.292;2023-04-07T11:32:22;98389.80;;;5.19;75.07
69127;BME280;56688;50.234;19.292;2023-04-07T11:34:51;98389.64;;;5.17;74.73
69127;BME280;56688;50.234;19.292;2023-04-07T11:37:22;98385.65;;;5.20;75.16
69127;BME280;56688;50.234;19.292;2023-04-07T11:39:52;98386.45;;;5.29;75.77
69127;BME280;56688;50.234;19.292;2023-04-07T11:42:36;98392.73;;;5.37;75.42
69127;BME280;56688;50.234;19.292;2023-04-07T11:45:05;98392.80;;;5.36;75.00
69127;BME280;56688;50.234;19.292;2023-04-07T11:47:41;98397.95;;;5.37;75.18
69127;BME280;56688;50.234;19.292;2023-04-07T11:50:09;98398.27;;;5.45;75.45
69127;BME280;56688;50.234;19.292;2023-04-07T11:55:23;98395.41;;;5.52;75.19
69127;BME280;56688;50.234;19.292;2023-04-07T11:57:50;98395.83;;;5.46;75.07
69127;BME280;56688;50.234;19.292;2023-04-07T12:00:18;98395.27;;;5.43;75.09
69127;BME280;56688;50.234;19.292;2023-04-07T12:02:46;98395.76;;;5.42;75.04
69127;BME280;56688;50.234;19.292;2023-04-07T12:05:13;98392.84;;;5.43;75.35
69127;BME280;56688;50.234;19.292;2023-04-07T12:07:51;98393.96;;;5.40;74.61
69127;BME280;56688;50.234;19.292;2023-04-07T12:10:20;98390.98;;;5.37;75.28
69127;BME280;56688;50.234;19.292;2023-04-07T12:12:47;98395.14;;;5.37;75.19
69127;BME280;56688;50.234;19.292;2023-04-07T12:15:15;98393.56;;;5.35;75.47
69127;BME280;56688;50.234;19.292;2023-04-07T12:17:45;98392.02;;;5.32;75.00
69127;BME280;56688;50.234;19.292;2023-04-07T12:20:14;98393.52;;;5.24;75.32
69127;BME280;56688;50.234;19.292;2023-04-07T12:22:41;98391.24;;;5.25;75.97
69127;BME280;56688;50.234;19.292;2023-04-07T12:25:08;98388.69;;;5.30;76.11
69127;BME280;56688;50.234;19.292;2023-04-07T12:27:34;98383.95;;;5.37;76.35
69127;BME280;56688;50.234;19.292;2023-04-07T12:30:10;98385.63;;;5.42;76.20
69127;BME280;56688;50.234;19.292;2023-04-07T12:32:39;98383.77;;;5.42;75.82
69127;BME280;56688;50.234;19.292;2023-04-07T12:35:06;98384.46;;;5.38;76.03
69127;BME280;56688;50.234;19.292;2023-04-07T12:37:32;98383.88;;;5.44;76.75
69127;BME280;56688;50.234;19.292;2023-04-07T12:39:59;98379.41;;;5.51;76.53
69127;BME280;56688;50.234;19.292;2023-04-07T12:42:26;98381.32;;;5.58;76.24
69127;BME280;56688;50.234;19.292;2023-04-07T12:44:53;98382.71;;;5.65;76.44
69127;BME280;56688;50.234;19.292;2023-04-07T12:47:20;98384.54;;;5.73;76.29
69127;BME280;56688;50.234;19.292;2023-04-07T12:49:48;98388.70;;;5.79;75.81
69127;BME280;56688;50.234;19.292;2023-04-07T12:52:15;98390.44;;;5.84;75.70
69127;BME280;56688;50.234;19.292;2023-04-07T12:54:42;98390.91;;;5.86;75.54
69127;BME280;56688;50.234;19.292;2023-04-07T12:57:11;98391.46;;;5.88;75.20
69127;BME280;56688;50.234;19.292;2023-04-07T12:59:38;98390.81;;;5.85;74.86
69127;BME280;56688;50.234;19.292;2023-04-07T13:02:05;98392.44;;;5.80;74.44
69127;BME280;56688;50.234;19.292;2023-04-07T13:04:32;98393.98;;;5.76;74.70
69127;BME280;56688;50.234;19.292;2023-04-07T13:07:01;98393.04;;;5.76;74.81
69127;BME280;56688;50.234;19.292;2023-04-07T13:09:28;98396.39;;;5.76;74.87
69127;BME280;56688;50.234;19.292;2023-04-07T13:11:55;98398.87;;;5.78;74.97
69127;BME280;56688;50.234;19.292;2023-04-07T13:14:23;98400.42;;;5.78;74.88
69127;BME280;56688;50.234;19.292;2023-04-07T13:16:50;98399.17;;;5.72;74.31
69127;BME280;56688;50.234;19.292;2023-04-07T13:19:17;98399.88;;;5.67;74.52
69127;BME280;56688;50.234;19.292;2023-04-07T13:21:44;98400.54;;;5.66;74.78
69127;BME280;56688;50.234;19.292;2023-04-07T13:24:14;98404.60;;;5.69;75.38
69127;BME280;56688;50.234;19.292;2023-04-07T13:26:41;98405.97;;;5.73;75.08
69127;BME280;56688;50.234;19.292;2023-04-07T13:29:07;98407.00;;;5.74;75.02
69127;BME280;56688;50.234;19.292;2023-04-07T13:31:34;98407.58;;;5.72;74.73
69127;BME280;56688;50.234;19.292;2023-04-07T13:34:01;98411.83;;;5.66;74.63